createdAt,value
2019-03-09T00:01:20.068Z,8.38
2019-03-09T00:03:49.488Z,9.05
2019-03-09T00:06:19.350Z,8.43
2019-03-09T00:08:48.742Z,6.45
2019-03-09T00:11:18.162Z,7.22
2019-03-09T00:13:47.680Z,8.35
2019-03-09T00:16:17.127Z,7.67
2019-03-09T00:18:46.825Z,8.65
2019-03-09T00:21:16.222Z,7.97
2019-03-09T00:24:07.337Z,7.95
2019-03-09T00:26:50.760Z,7.97
2019-03-09T00:29:39.117Z,7.17
2019-03-09T00:32:11.278Z,7.40
2019-03-09T00:34:40.965Z,6.10
2019-03-09T00:37:10.411Z,7.22
2019-03-09T00:39:39.827Z,7.80
2019-03-09T00:42:09.264Z,6.72
2019-03-09T00:44:38.652Z,7.20
2019-03-09T00:47:08.591Z,7.65
2019-03-09T00:49:38.008Z,6.95
2019-03-09T00:52:07.403Z,6.85
2019-03-09T00:54:36.803Z,5.50
2019-03-09T00:57:06.202Z,6.87
2019-03-09T00:59:35.643Z,7.50
2019-03-09T01:02:05.043Z,7.58
2019-03-09T01:04:34.470Z,7.15
2019-03-09T01:07:03.911Z,6.70
2019-03-09T01:09:33.267Z,7.67
2019-03-09T01:12:02.789Z,6.95
2019-03-09T01:14:32.195Z,7.70
2019-03-09T01:17:01.611Z,7.37
2019-03-09T01:19:31.041Z,7.95
2019-03-09T01:22:00.455Z,6.80
2019-03-09T01:24:29.854Z,6.75
2019-03-09T01:26:59.186Z,7.05
2019-03-09T01:29:28.669Z,7.58
2019-03-09T01:31:58.122Z,6.87
2019-03-09T01:34:27.565Z,7.92
2019-03-09T01:36:56.943Z,7.37
2019-03-09T01:39:26.484Z,6.97
2019-03-09T01:41:55.904Z,6.58
2019-03-09T01:44:25.375Z,6.90
2019-03-09T01:46:54.724Z,6.95
2019-03-09T01:49:24.148Z,7.77
2019-03-09T01:51:53.729Z,6.40
2019-03-09T01:54:23.118Z,5.50
2019-03-09T01:56:52.581Z,7.62
2019-03-09T01:59:21.981Z,6.72
2019-03-09T02:01:51.385Z,7.23
2019-03-09T02:04:20.819Z,8.00
2019-03-09T02:06:50.238Z,8.38
2019-03-09T02:09:19.955Z,7.75
2019-03-09T02:11:49.428Z,7.12
2019-03-09T02:14:18.802Z,8.50
2019-03-09T02:16:48.216Z,7.92
2019-03-09T02:19:17.633Z,8.03
2019-03-09T02:21:47.049Z,7.92
2019-03-09T02:24:16.588Z,8.38
2019-03-09T02:26:45.972Z,8.50
2019-03-09T02:29:15.406Z,8.10
2019-03-09T02:31:44.813Z,8.45
2019-03-09T02:34:14.261Z,6.87
2019-03-09T02:36:43.777Z,8.45
2019-03-09T02:39:21.017Z,6.60
2019-03-09T02:41:50.432Z,8.13
2019-03-09T02:44:20.140Z,8.45
2019-03-09T02:46:49.593Z,7.50
2019-03-09T02:49:18.986Z,7.97
2019-03-09T02:51:48.381Z,7.67
2019-03-09T02:54:17.763Z,6.87
2019-03-09T02:56:47.181Z,8.60
2019-03-09T02:59:16.568Z,8.25
2019-03-09T03:02:04.137Z,8.37
2019-03-09T03:04:33.560Z,7.30
2019-03-09T03:07:02.963Z,7.35
2019-03-09T03:09:32.896Z,7.37
2019-03-09T03:12:02.303Z,8.50
2019-03-09T03:14:31.678Z,7.83
2019-03-09T03:17:01.029Z,8.30
2019-03-09T03:19:30.472Z,8.30
2019-03-09T03:21:59.858Z,7.83
2019-03-09T03:24:29.272Z,7.53
2019-03-09T03:26:58.648Z,7.63
2019-03-09T03:29:28.114Z,7.22
2019-03-09T03:31:57.483Z,7.12
2019-03-09T03:34:26.985Z,7.53
2019-03-09T03:36:56.361Z,7.47
2019-03-09T03:39:25.794Z,7.67
2019-03-09T03:41:55.221Z,6.60
2019-03-09T03:44:24.920Z,7.10
2019-03-09T03:46:54.354Z,7.28
2019-03-09T03:49:25.337Z,7.78
2019-03-09T03:51:54.971Z,8.33
2019-03-09T03:54:24.362Z,6.35
2019-03-09T03:56:53.748Z,7.70
2019-03-09T03:59:23.149Z,7.97
2019-03-09T04:01:52.631Z,8.60
2019-03-09T04:04:22.158Z,8.45
2019-03-09T04:06:52.023Z,8.35
2019-03-09T04:09:22.237Z,7.40
2019-03-09T04:11:51.751Z,8.05
2019-03-09T04:14:21.423Z,8.75
2019-03-09T04:16:50.837Z,8.83
2019-03-09T04:19:20.251Z,8.08
2019-03-09T04:21:49.971Z,8.53
2019-03-09T04:24:19.380Z,7.70
2019-03-09T04:26:48.821Z,8.05
2019-03-09T04:29:18.231Z,8.43
2019-03-09T04:31:47.743Z,8.20
2019-03-09T04:34:17.161Z,8.33
2019-03-09T04:36:46.537Z,7.83
2019-03-09T04:39:15.971Z,7.95
2019-03-09T04:41:47.117Z,7.90
2019-03-09T04:44:16.564Z,8.73
2019-03-09T04:46:46.054Z,8.63
2019-03-09T04:49:15.491Z,8.45
2019-03-09T04:51:44.903Z,7.67
2019-03-09T04:54:14.345Z,8.10
2019-03-09T04:56:43.744Z,8.05
2019-03-09T04:59:13.118Z,8.75
2019-03-09T05:01:42.536Z,9.30
2019-03-09T05:04:48.597Z,8.50
2019-03-09T05:07:21.916Z,8.87
2019-03-09T05:10:33.196Z,8.63
2019-03-09T05:13:09.022Z,9.20
2019-03-09T05:15:38.351Z,9.40
2019-03-09T05:18:07.762Z,9.55
2019-03-09T05:20:37.212Z,9.00
2019-03-09T05:23:06.654Z,9.60
2019-03-09T05:25:36.076Z,9.25
2019-03-09T05:28:05.426Z,9.50
2019-03-09T05:30:39.257Z,8.68
2019-03-09T05:33:08.708Z,9.23
2019-03-09T05:35:38.103Z,9.15
2019-03-09T05:38:07.573Z,8.63
2019-03-09T05:40:36.987Z,9.27
2019-03-09T05:43:06.503Z,8.78
2019-03-09T05:45:35.923Z,9.40
2019-03-09T05:48:05.809Z,9.45
2019-03-09T05:50:35.200Z,9.30
2019-03-09T05:53:13.303Z,9.65
2019-03-09T05:55:42.730Z,9.58
2019-03-09T05:58:13.851Z,9.32
2019-03-09T06:00:43.747Z,8.50
2019-03-09T06:03:13.210Z,9.05
2019-03-09T06:05:44.929Z,9.53
2019-03-09T06:08:14.325Z,10.08
2019-03-09T06:10:43.744Z,10.65
2019-03-09T06:13:13.153Z,9.43
2019-03-09T06:15:42.696Z,9.80
2019-03-09T06:18:12.125Z,10.25
2019-03-09T06:20:41.669Z,9.55
2019-03-09T06:23:10.496Z,9.60
2019-03-09T06:25:40.028Z,10.40
2019-03-09T06:28:09.464Z,10.58
2019-03-09T06:30:38.870Z,10.40
2019-03-09T06:33:40.287Z,11.45
2019-03-09T06:36:43.124Z,10.90
2019-03-09T06:39:21.172Z,17.45
2019-03-09T06:42:08.192Z,18.40
2019-03-09T06:44:37.860Z,11.53
2019-03-09T06:47:07.320Z,11.73
2019-03-09T06:49:36.778Z,33.05
2019-03-09T06:52:06.220Z,33.42
2019-03-09T06:54:36.098Z,44.13
2019-03-09T06:57:13.616Z,34.03
2019-03-09T06:59:36.648Z,16.60
2019-03-09T07:02:06.141Z,13.55
2019-03-09T07:04:35.569Z,16.73
2019-03-09T07:07:05.015Z,11.93
2019-03-09T07:09:34.416Z,18.15
2019-03-09T07:12:03.874Z,27.15
2019-03-09T07:15:16.438Z,13.63
2019-03-09T07:17:45.940Z,15.65
2019-03-09T07:20:15.722Z,14.38
2019-03-09T07:22:45.198Z,19.60
2019-03-09T07:25:14.745Z,14.63
2019-03-09T07:27:44.283Z,11.30
2019-03-09T07:30:16.502Z,19.87
2019-03-09T07:32:45.940Z,11.80
2019-03-09T07:35:15.355Z,11.10
2019-03-09T07:37:44.759Z,9.45
2019-03-09T07:40:14.457Z,10.72
2019-03-09T07:42:43.865Z,10.93
2019-03-09T07:45:13.560Z,13.15
2019-03-09T07:47:43.071Z,10.98
2019-03-09T07:50:12.791Z,10.90
2019-03-09T07:52:42.494Z,10.77
2019-03-09T07:55:13.299Z,10.90
2019-03-09T07:57:42.988Z,10.23
2019-03-09T08:00:14.895Z,10.32
2019-03-09T08:02:44.280Z,11.38
2019-03-09T08:05:13.866Z,11.73
2019-03-09T08:07:43.331Z,11.10
2019-03-09T08:10:14.795Z,11.73
2019-03-09T08:12:44.379Z,9.35
2019-03-09T08:15:15.155Z,10.90
2019-03-09T08:17:44.733Z,11.88
2019-03-09T08:20:14.361Z,8.28
2019-03-09T08:22:43.889Z,9.63
2019-03-09T08:25:14.052Z,10.58
2019-03-09T08:27:43.457Z,10.97
2019-03-09T08:30:15.051Z,11.03
2019-03-09T08:32:44.384Z,11.43
2019-03-09T08:35:14.160Z,11.05
2019-03-09T08:37:43.609Z,11.55
2019-03-09T08:40:13.568Z,10.23
2019-03-09T08:42:43.080Z,10.97
2019-03-09T08:45:13.324Z,9.63
2019-03-09T08:47:51.557Z,8.78
2019-03-09T08:50:15.603Z,10.50
2019-03-09T08:52:44.958Z,9.30
2019-03-09T08:55:17.098Z,8.08
2019-03-09T08:57:46.497Z,8.48
2019-03-09T09:00:18.263Z,6.85
2019-03-09T09:02:47.652Z,9.70
2019-03-09T09:05:16.997Z,9.15
2019-03-09T09:07:46.522Z,9.23
2019-03-09T09:10:15.926Z,9.03
2019-03-09T09:12:45.776Z,8.20
2019-03-09T09:15:15.224Z,8.30
2019-03-09T09:17:44.373Z,8.20
2019-03-09T09:20:15.912Z,6.12
2019-03-09T09:22:44.777Z,7.15
2019-03-09T09:25:14.356Z,6.30
2019-03-09T09:27:43.904Z,7.03
2019-03-09T09:30:22.093Z,6.17
2019-03-09T09:32:50.993Z,5.10
2019-03-09T09:35:19.941Z,6.97
2019-03-09T09:37:49.535Z,6.40
2019-03-09T09:40:19.110Z,6.47
2019-03-09T09:42:48.027Z,5.70
2019-03-09T09:45:16.890Z,5.28
2019-03-09T09:47:46.421Z,5.78
2019-03-09T09:50:15.297Z,7.37
2019-03-09T09:52:44.817Z,8.25
2019-03-09T09:55:14.118Z,6.08
2019-03-09T09:57:42.920Z,5.97
2019-03-09T10:00:15.310Z,5.70
2019-03-09T10:02:44.968Z,5.33
2019-03-09T10:05:14.127Z,5.47
2019-03-09T10:07:43.566Z,6.12
2019-03-09T10:10:14.733Z,6.00
2019-03-09T10:12:43.520Z,5.20
2019-03-09T10:15:13.555Z,5.53
2019-03-09T10:17:42.534Z,4.92
2019-03-09T10:20:12.514Z,4.90
2019-03-09T10:22:41.452Z,5.03
2019-03-09T10:25:10.422Z,5.20
2019-03-09T10:27:39.930Z,4.62
2019-03-09T10:30:11.228Z,5.12
2019-03-09T10:32:40.665Z,4.25
2019-03-09T10:35:10.148Z,4.80
2019-03-09T10:37:39.615Z,5.00
2019-03-09T10:40:09.191Z,5.03
2019-03-09T10:42:38.004Z,4.42
2019-03-09T10:45:07.185Z,4.37
2019-03-09T10:47:36.099Z,4.17
2019-03-09T10:50:05.720Z,4.47
2019-03-09T10:52:35.161Z,4.72
2019-03-09T10:55:05.021Z,4.58
2019-03-09T10:57:34.546Z,4.87
2019-03-09T11:00:03.480Z,3.90
2019-03-09T11:02:33.020Z,4.53
2019-03-09T11:05:02.754Z,3.90
2019-03-09T11:07:31.676Z,3.90
2019-03-09T11:10:01.103Z,4.97
2019-03-09T11:12:30.667Z,5.08
2019-03-09T11:15:00.148Z,5.28
2019-03-09T11:17:29.611Z,4.20
2019-03-09T11:19:59.220Z,4.05
2019-03-09T11:22:28.732Z,4.35
2019-03-09T11:25:03.290Z,4.72
2019-03-09T11:27:29.356Z,3.65
2019-03-09T11:29:58.813Z,4.60
2019-03-09T11:32:28.278Z,3.42
2019-03-09T11:34:57.750Z,4.83
2019-03-09T11:37:27.231Z,2.95
2019-03-09T11:39:56.156Z,3.15
2019-03-09T11:42:25.641Z,3.93
2019-03-09T11:44:55.245Z,3.17
2019-03-09T11:47:24.714Z,3.77
2019-03-09T11:49:54.215Z,4.15
2019-03-09T11:52:23.642Z,3.80
2019-03-09T11:54:53.211Z,2.67
2019-03-09T11:57:22.096Z,2.90
2019-03-09T11:59:51.550Z,3.27
2019-03-09T12:02:21.147Z,2.92
2019-03-09T12:04:50.574Z,3.02
2019-03-09T12:07:19.442Z,3.37
2019-03-09T12:09:48.975Z,2.90
2019-03-09T12:12:18.594Z,3.20
2019-03-09T12:14:47.488Z,2.27
2019-03-09T12:17:16.996Z,2.85
2019-03-09T12:19:46.558Z,3.37
2019-03-09T12:22:16.248Z,3.30
2019-03-09T12:24:50.798Z,2.90
2019-03-09T12:27:20.372Z,2.60
2019-03-09T12:29:49.225Z,2.62
2019-03-09T12:32:18.771Z,2.70
2019-03-09T12:34:48.216Z,3.90
2019-03-09T12:37:17.607Z,2.03
2019-03-09T12:39:46.437Z,2.37
2019-03-09T12:42:15.857Z,2.10
2019-03-09T12:44:45.296Z,2.08
2019-03-09T12:47:14.640Z,2.12
2019-03-09T12:49:44.064Z,2.37
2019-03-09T12:52:13.642Z,2.17
2019-03-09T12:54:43.100Z,2.10
2019-03-09T12:57:12.571Z,3.22
2019-03-09T12:59:42.024Z,3.27
2019-03-09T13:02:11.471Z,5.08
2019-03-09T13:04:40.992Z,4.75
2019-03-09T13:07:10.848Z,5.25
2019-03-09T13:09:40.262Z,7.67
2019-03-09T13:12:09.688Z,8.13
2019-03-09T13:14:39.270Z,6.65
2019-03-09T13:17:08.622Z,7.07
2019-03-09T13:19:38.096Z,4.03
2019-03-09T13:22:07.579Z,4.85
2019-03-09T13:24:37.028Z,6.37
2019-03-09T13:27:06.478Z,6.17
2019-03-09T13:29:35.859Z,5.05
2019-03-09T13:32:05.367Z,2.87
2019-03-09T13:34:34.135Z,5.33
2019-03-09T13:37:03.597Z,6.05
2019-03-09T13:39:33.058Z,3.27
2019-03-09T13:42:02.529Z,2.60
2019-03-09T13:44:32.048Z,2.17
2019-03-09T13:47:01.498Z,2.20
2019-03-09T13:49:30.963Z,2.95
2019-03-09T13:52:00.438Z,3.37
2019-03-09T13:54:29.845Z,3.50
2019-03-09T13:56:59.295Z,3.55
2019-03-09T13:59:28.770Z,4.47
2019-03-09T14:01:58.476Z,4.15
2019-03-09T14:04:28.130Z,3.00
2019-03-09T14:06:57.670Z,3.10
2019-03-09T14:09:27.173Z,5.08
2019-03-09T14:11:56.601Z,3.80
2019-03-09T14:14:26.019Z,5.30
2019-03-09T14:16:55.694Z,3.87
2019-03-09T14:19:24.471Z,5.70
2019-03-09T14:21:53.987Z,5.50
2019-03-09T14:24:22.790Z,4.70
2019-03-09T14:26:52.253Z,4.97
2019-03-09T14:29:21.777Z,6.75
2019-03-09T14:31:51.236Z,4.25
2019-03-09T14:34:20.623Z,6.70
2019-03-09T14:36:50.157Z,6.72
2019-03-09T14:39:19.646Z,7.28
2019-03-09T14:42:08.195Z,5.50
2019-03-09T14:44:37.018Z,5.87
2019-03-09T14:47:06.490Z,7.25
2019-03-09T14:49:35.944Z,6.97
2019-03-09T14:52:05.421Z,6.40
2019-03-09T14:54:34.867Z,5.15
2019-03-09T14:57:03.651Z,3.08
2019-03-09T14:59:32.498Z,4.72
2019-03-09T15:02:01.919Z,2.80
2019-03-09T15:04:31.443Z,1.77
2019-03-09T15:07:06.552Z,2.20
2019-03-09T15:09:36.124Z,2.05
2019-03-09T15:12:05.654Z,2.17
2019-03-09T15:14:35.153Z,1.70
2019-03-09T15:17:04.592Z,2.10
2019-03-09T15:19:33.975Z,1.40
2019-03-09T15:22:03.412Z,1.30
2019-03-09T15:24:32.860Z,2.60
2019-03-09T15:27:02.349Z,2.50
2019-03-09T15:29:32.850Z,2.17
2019-03-09T15:32:02.481Z,2.63
2019-03-09T15:34:32.035Z,2.20
2019-03-09T15:37:01.468Z,1.92
2019-03-09T15:39:30.890Z,2.20
2019-03-09T15:42:00.300Z,3.98
2019-03-09T15:44:29.741Z,3.27
2019-03-09T15:46:59.215Z,3.62
2019-03-09T15:49:28.655Z,4.33
2019-03-09T15:51:58.087Z,4.30
2019-03-09T15:54:27.552Z,4.80
2019-03-09T15:56:56.944Z,3.58
2019-03-09T15:59:26.344Z,3.02
2019-03-09T16:01:55.777Z,2.30
2019-03-09T16:04:25.241Z,4.83
2019-03-09T16:06:54.705Z,2.10
2019-03-09T16:09:24.160Z,1.90
2019-03-09T16:11:53.587Z,1.70
2019-03-09T16:14:23.058Z,2.50
2019-03-09T16:16:52.568Z,3.02
2019-03-09T16:19:21.966Z,3.40
2019-03-09T16:21:51.427Z,3.92
2019-03-09T16:24:20.906Z,3.50
2019-03-09T16:26:50.348Z,4.92
2019-03-09T16:29:19.748Z,14.15
2019-03-09T16:31:49.216Z,4.70
2019-03-09T16:34:18.622Z,3.95
2019-03-09T16:36:48.028Z,3.65
2019-03-09T16:39:17.438Z,3.45
2019-03-09T16:41:46.823Z,3.35
2019-03-09T16:44:16.284Z,5.22
2019-03-09T16:46:48.033Z,3.50
2019-03-09T16:49:16.721Z,4.50
2019-03-09T16:51:46.159Z,3.62
2019-03-09T16:54:15.578Z,5.15
2019-03-09T16:56:44.995Z,11.35
2019-03-09T16:59:14.411Z,8.78
2019-03-09T17:01:43.841Z,7.92
2019-03-09T17:04:13.641Z,6.53
2019-03-09T17:06:43.070Z,7.33
2019-03-09T17:09:12.537Z,6.73
2019-03-09T17:11:41.974Z,7.30
2019-03-09T17:14:11.395Z,6.58
2019-03-09T17:16:40.828Z,4.87
2019-03-09T17:19:10.267Z,5.70
2019-03-09T17:21:39.758Z,5.30
2019-03-09T17:24:09.167Z,4.50
2019-03-09T17:26:38.667Z,8.50
2019-03-09T17:29:08.091Z,4.53
2019-03-09T17:31:37.976Z,4.15
2019-03-09T17:34:07.429Z,5.42
2019-03-09T17:36:36.889Z,3.02
2019-03-09T17:39:08.749Z,6.37
2019-03-09T17:41:38.212Z,17.77
2019-03-09T17:44:07.658Z,3.10
2019-03-09T17:46:37.187Z,10.20
2019-03-09T17:49:06.657Z,3.52
2019-03-09T17:51:36.103Z,3.87
2019-03-09T17:54:05.807Z,5.80
2019-03-09T17:56:35.211Z,3.95
2019-03-09T17:59:04.627Z,7.80
2019-03-09T18:01:34.133Z,5.87
2019-03-09T18:04:04.633Z,4.70
2019-03-09T18:06:34.086Z,35.83
2019-03-09T18:09:04.439Z,4.85
2019-03-09T18:11:34.110Z,5.00
2019-03-09T18:14:07.214Z,4.75
2019-03-09T18:16:34.897Z,8.53
2019-03-09T18:19:04.303Z,8.05
2019-03-09T18:21:33.903Z,8.10
2019-03-09T18:24:03.301Z,5.95
2019-03-09T18:26:32.811Z,4.35
2019-03-09T18:29:02.668Z,5.30
2019-03-09T18:31:32.059Z,5.30
2019-03-09T18:34:01.546Z,4.75
2019-03-09T18:36:31.037Z,4.70
2019-03-09T18:39:00.486Z,5.70
2019-03-09T18:41:29.939Z,9.90
2019-03-09T18:43:59.487Z,5.72
2019-03-09T18:46:28.947Z,4.20
2019-03-09T18:48:58.429Z,5.50
2019-03-09T18:51:27.919Z,5.40
2019-03-09T18:53:57.579Z,6.10
2019-03-09T18:56:27.000Z,7.65
2019-03-09T18:58:56.516Z,6.35
2019-03-09T19:01:25.961Z,6.70
2019-03-09T19:03:55.471Z,6.60
2019-03-09T19:06:24.926Z,7.37
2019-03-09T19:08:54.417Z,17.37
2019-03-09T19:11:23.862Z,12.00
2019-03-09T19:13:53.299Z,9.98
2019-03-09T19:16:22.842Z,7.45
2019-03-09T19:18:52.369Z,9.20
2019-03-09T19:21:21.839Z,8.38
2019-03-09T19:23:51.298Z,8.78
2019-03-09T19:26:20.688Z,13.78
2019-03-09T19:28:50.253Z,14.30
2019-03-09T19:31:19.754Z,11.63
2019-03-09T19:33:49.229Z,19.02
2019-03-09T19:36:18.669Z,17.17
2019-03-09T19:38:48.222Z,23.75
2019-03-09T19:41:17.662Z,24.83
2019-03-09T19:43:47.200Z,66.40
2019-03-09T19:46:16.695Z,54.48
2019-03-09T19:48:46.153Z,55.73
2019-03-09T19:51:15.642Z,56.30
2019-03-09T19:53:45.103Z,46.13
2019-03-09T19:56:14.633Z,104.95
2019-03-09T19:58:44.076Z,107.60
2019-03-09T20:01:13.519Z,59.05
2019-03-09T20:03:42.928Z,44.63
2019-03-09T20:06:12.413Z,46.97
2019-03-09T20:08:41.884Z,37.08
2019-03-09T20:11:11.348Z,137.40
2019-03-09T20:13:40.830Z,73.42
2019-03-09T20:16:10.396Z,34.65
2019-03-09T20:18:39.960Z,35.43
2019-03-09T20:21:09.394Z,47.93
2019-03-09T20:23:38.888Z,41.83
2019-03-09T20:26:08.322Z,96.28
2019-03-09T20:28:37.750Z,43.35
2019-03-09T20:31:07.191Z,32.55
2019-03-09T20:33:36.752Z,43.42
2019-03-09T20:36:06.264Z,32.60
2019-03-09T20:38:35.789Z,32.63
2019-03-09T20:41:05.131Z,33.58
2019-03-09T20:43:34.642Z,45.50
2019-03-09T20:46:04.448Z,20.50
2019-03-09T20:48:33.979Z,15.17
2019-03-09T20:51:03.368Z,25.77
2019-03-09T20:53:32.921Z,79.35
2019-03-09T20:56:02.458Z,14.10
2019-03-09T20:58:31.861Z,24.47
2019-03-09T21:01:20.378Z,12.15
2019-03-09T21:03:49.808Z,29.85
2019-03-09T21:06:19.255Z,12.20
2019-03-09T21:08:49.303Z,40.10
2019-03-09T21:11:18.944Z,13.18
2019-03-09T21:13:48.395Z,12.98
2019-03-09T21:16:17.849Z,11.55
2019-03-09T21:18:47.249Z,10.53
2019-03-09T21:21:16.730Z,11.97
2019-03-09T21:23:46.235Z,13.25
2019-03-09T21:26:15.662Z,8.28
2019-03-09T21:28:45.153Z,9.43
2019-03-09T21:31:14.574Z,13.20
2019-03-09T21:33:44.003Z,11.03
2019-03-09T21:36:13.424Z,9.00
2019-03-09T21:38:42.281Z,7.15
2019-03-09T21:41:11.742Z,7.25
2019-03-09T21:43:41.215Z,9.13
2019-03-09T21:46:10.663Z,8.70
2019-03-09T21:48:40.130Z,6.35
2019-03-09T21:51:09.518Z,8.30
2019-03-09T21:53:38.967Z,8.60
2019-03-09T21:56:08.378Z,6.37
2019-03-09T21:58:37.844Z,8.30
2019-03-09T22:01:07.251Z,7.55
2019-03-09T22:03:36.760Z,7.05
2019-03-09T22:06:06.648Z,6.97
2019-03-09T22:08:36.205Z,5.85
2019-03-09T22:11:05.680Z,7.10
2019-03-09T22:13:35.084Z,6.58
2019-03-09T22:16:04.516Z,5.37
2019-03-09T22:18:33.975Z,5.55
2019-03-09T22:21:03.409Z,5.53
2019-03-09T22:23:43.513Z,5.53
2019-03-09T22:26:03.931Z,5.45
2019-03-09T22:28:33.418Z,4.87
2019-03-09T22:31:02.842Z,5.08
2019-03-09T22:33:32.279Z,5.67
2019-03-09T22:36:01.747Z,5.37
2019-03-09T22:38:31.153Z,5.53
2019-03-09T22:41:00.565Z,9.93
2019-03-09T22:43:29.998Z,5.30
2019-03-09T22:45:59.396Z,5.05
2019-03-09T22:48:28.807Z,5.20
2019-03-09T22:50:58.245Z,4.95
2019-03-09T22:53:27.666Z,4.80
2019-03-09T22:55:57.140Z,4.85
2019-03-09T22:58:26.552Z,5.05
2019-03-09T23:00:56.007Z,4.75
2019-03-09T23:03:25.427Z,5.37
2019-03-09T23:05:54.972Z,5.67
2019-03-09T23:08:24.461Z,5.58
2019-03-09T23:10:53.893Z,5.87
2019-03-09T23:13:23.489Z,5.70
2019-03-09T23:15:52.890Z,5.92
2019-03-09T23:18:22.302Z,5.90
2019-03-09T23:20:51.743Z,6.20
2019-03-09T23:23:21.150Z,5.93
2019-03-09T23:25:50.562Z,6.40
2019-03-09T23:28:19.958Z,7.97
2019-03-09T23:30:49.380Z,6.55
2019-03-09T23:33:18.832Z,6.40
2019-03-09T23:35:48.502Z,6.25
2019-03-09T23:38:17.978Z,6.60
2019-03-09T23:40:47.392Z,6.50
2019-03-09T23:43:16.795Z,7.20
2019-03-09T23:45:46.186Z,6.58
2019-03-09T23:48:15.636Z,7.53
2019-03-09T23:50:45.068Z,6.70
2019-03-09T23:53:14.517Z,6.87
2019-03-09T23:55:43.984Z,8.30
2019-03-09T23:58:13.464Z,8.18
